Stations météo

réclame
Mon MeteoGroup
Pian Rosa, Italie (16052): Température de l'air & dewpoint: 17.05.2018 20:00:00 - 23.05.2018 20:00:00 (CEST)Pian Rosa, Italie (16052): Vitesse du vent: 17.05.2018 20:00:00 - 23.05.2018 20:00:00 (CEST)Pian Rosa, Italie (16052): Direction du vent: 17.05.2018 20:00:00 - 23.05.2018 20:00:00 (CEST)Pian Rosa, Italie (16052): visibility: 17.05.2018 20:00:00 - 23.05.2018 20:00:00 (CEST)Pian Rosa, Italie (16052): Ensoleillement: 17.05.2018 20:00:00 - 23.05.2018 20:00:00 (CEST)
Date & Time tt [°C] td [°C] ff [km/h] ff [knt] dd vv [km] sd [min]
23.05.2018 20:00:00 -1,0 -4,5 4 2 - 0,1 0
23.05.2018 19:00:00 -0,2 -5,2 4 2 - 0,1 0
23.05.2018 18:00:00 0,2 -5,0 8 4 S 0,1 0
23.05.2018 17:00:00 0,8 -5,0 9 5 S 0,1 0
23.05.2018 16:00:00 1,0 -4,6 11 6 W 0,1 0
23.05.2018 15:00:00 1,6 -5,5 8 4 SW 0,1 0
23.05.2018 14:00:00 1,8 -5,4 8 4 WSW 0,1 0
23.05.2018 13:00:00 1,4 -6,6 11 6 SSW 0,1 0
23.05.2018 12:00:00 0,0 -4,8 4 2 - 0,1 0
23.05.2018 11:00:00 -1,2 -4,7 4 2 - 0,1 0
23.05.2018 10:00:00 -1,2 -2,9 4 2 - 0,1 0
23.05.2018 09:00:00 -3,8 -4,3 11 6 NE 0,1 0
23.05.2018 08:00:00 -4,2 -4,9 9 5 ENE 0,1 0
23.05.2018 07:00:00 -3,8 -5,0 4 2 - 0,1 -
23.05.2018 06:00:00 -3,2 -6,0 4 2 - 0,1 -
23.05.2018 05:00:00 -2,8 -4,8 4 2 - 0,1 -
23.05.2018 04:00:00 -2,8 -6,1 0 0 N 0,1 -
23.05.2018 03:00:00 -2,6 -4,9 4 2 - 0,1 -
23.05.2018 02:00:00 -2,2 -4,2 8 4 SW 0,1 -
23.05.2018 01:00:00 -2,4 -4,0 0 0 N 0,1 -
23.05.2018 00:00:00 -2,6 -4,2 0 0 N 0,1 -
22.05.2018 23:00:00 -2,4 -4,1 0 0 N 0,1 -
22.05.2018 22:00:00 -2,2 -4,4 0 0 N 0,1 -
22.05.2018 21:00:00 -2,6 -5,9 8 4 N 0,5 -
22.05.2018 20:00:00 -0,8 -6,2 5 3 - 0,5 0
22.05.2018 19:00:00 -1,0 -7,3 0 0 N 0,8 0
22.05.2018 18:00:00 -0,2 -5,6 4 2 - 0,3 0
22.05.2018 17:00:00 1,0 -3,9 9 5 W 0,1 0
22.05.2018 16:00:00 0,8 -4,6 4 2 - 0,1 0
22.05.2018 15:00:00 -1,0 -7,1 4 2 - 0,3 0
22.05.2018 14:00:00 -1,0 -7,1 8 4 NE 0,8 0
22.05.2018 13:00:00 -0,4 -7,4 4 2 - 0,8 24
22.05.2018 12:00:00 -0,6 -8,1 4 2 - 1,0 60
22.05.2018 11:00:00 -1,6 -7,3 0 0 N 1,0 60
22.05.2018 10:00:00 -2,6 -6,2 4 2 - 15 12
22.05.2018 09:00:00 -3,8 -7,7 9 5 ENE 20 24
22.05.2018 08:00:00 -5,0 -8,7 18 10 ENE 10 -
22.05.2018 07:00:00 -5,2 -8,0 11 6 E 10 -
22.05.2018 06:00:00 -5,2 -9,1 15 8 ENE 10 -
22.05.2018 05:00:00 -4,4 -10,8 9 5 N 10 -
22.05.2018 04:00:00 -4,2 -9,2 4 2 - 10 -
22.05.2018 03:00:00 -4,2 -10,4 4 2 - 10 -
22.05.2018 02:00:00 -4,4 -10,6 21 11 E 10 -
22.05.2018 01:00:00 -4,0 -9,0 4 2 - 4,0 -
22.05.2018 00:00:00 -3,6 -9,6 21 11 SE 0,8 -
21.05.2018 23:00:00 -3,4 -7,7 5 3 - 0,8 -
21.05.2018 22:00:00 -3,0 -7,2 15 8 S 0,8 -
21.05.2018 21:00:00 -2,0 -9,2 0 0 N 10 -
21.05.2018 20:00:00 -0,6 -7,8 4 2 - 7 0
21.05.2018 19:00:00 -0,6 -6,5 4 2 - 0,8 0
21.05.2018 18:00:00 -0,4 -7,6 13 7 SSW 0,1 0
21.05.2018 17:00:00 0,0 -10,2 0 0 N 0,1 0
21.05.2018 16:00:00 0,8 -7,4 4 2 - 0,5 0
21.05.2018 15:00:00 -0,2 -8,9 8 4 SSE 0,8 0
21.05.2018 14:00:00 -0,2 -6,4 11 6 S 3,5 0
21.05.2018 13:00:00 -0,8 -9,9 13 7 ESE 0,8 0
21.05.2018 12:00:00 -1,6 -7,3 15 8 SSE 0,1 0
21.05.2018 11:00:00 -1,8 -7,1 4 2 - 0,3 0
21.05.2018 10:00:00 -2,2 -6,9 4 2 - 0,1 0
21.05.2018 09:00:00 -3,4 -6,7 0 0 N 0,1 0
21.05.2018 08:00:00 -4,4 -6,1 4 2 - 0,1 -
21.05.2018 07:00:00 -4,4 -6,2 0 0 N 0,1 -
21.05.2018 06:00:00 -4,6 -6,4 4 2 - 0,1 -
21.05.2018 05:00:00 -4,4 -5,6 0 0 N 0,1 -
21.05.2018 04:00:00 -4,6 -5,8 0 0 N 0,1 -
21.05.2018 03:00:00 -4,8 -6,3 0 0 N 0,1 -
21.05.2018 02:00:00 -4,6 -6,1 15 8 SE 0,1 -
21.05.2018 01:00:00 -4,2 -6,3 4 2 - 0,1 -
21.05.2018 00:00:00 -4,2 -5,7 13 7 SE 0,1 -
20.05.2018 23:00:00 -4,0 -6,5 15 8 SE 0,1 -
20.05.2018 22:00:00 -4,2 -8,3 9 5 S 0,1 -
20.05.2018 21:00:00 -3,2 -5,2 13 7 S 0,1 -
20.05.2018 20:00:00 -3,0 -5,5 13 7 S 0,1 0
20.05.2018 19:00:00 -1,4 -4,9 9 5 S 0,1 0
20.05.2018 18:00:00 -0,2 -6,8 4 2 - 0,1 0
20.05.2018 17:00:00 0,8 -6,5 9 5 S 0,1 0
20.05.2018 16:00:00 1,2 -6,6 8 4 S 0,1 0
20.05.2018 15:00:00 0,2 -6,9 4 2 - 0,1 0
20.05.2018 14:00:00 0,6 -6,9 9 5 SSW 0,1 0
20.05.2018 13:00:00 0,2 -6,9 9 5 W 0,1 0
20.05.2018 12:00:00 -1,2 -7,8 18 10 SSE 0,1 0
20.05.2018 11:00:00 -1,6 -5,8 4 2 - 0,1 0
20.05.2018 10:00:00 -2,8 -7,5 11 6 S 0,1 0
20.05.2018 09:00:00 -3,4 -5,7 8 4 S 0,1 0
20.05.2018 08:00:00 -4,2 -7,8 9 5 SSW 0,1 0
20.05.2018 07:00:00 -4,8 -7,1 4 2 - 0,1 -
20.05.2018 06:00:00 -4,8 -6,5 11 6 S 0,1 -
20.05.2018 05:00:00 -5,0 -6,8 11 6 S 0,3 -
20.05.2018 04:00:00 -4,8 -6,5 11 6 S 0,5 -
20.05.2018 03:00:00 -4,8 -8,5 15 8 SSW 10 -
20.05.2018 02:00:00 -4,4 -8,0 13 7 S 10 -
20.05.2018 01:00:00 -4,4 -6,8 11 6 S 0,1 -
20.05.2018 00:00:00 -4,0 -6,3 13 7 S 0,1 -
19.05.2018 23:00:00 -4,8 -7,6 9 5 ENE 0,1 -
19.05.2018 22:00:00 -3,0 -7,3 9 5 SSE 0,1 -
19.05.2018 21:00:00 -3,0 -6,5 4 2 - 0,5 -
19.05.2018 20:00:00 -1,2 -7,8 11 6 SSW 1,0 12
19.05.2018 19:00:00 -0,8 -8,7 11 6 SSW 4,0 0
19.05.2018 18:00:00 -0,2 -8,6 4 2 - 0,8 0
19.05.2018 17:00:00 0,0 -7,3 9 5 SSW 0,8 6
19.05.2018 16:00:00 -0,2 -7,9 9 5 SW 1,0 24
19.05.2018 15:00:00 0,0 -7,5 9 5 SSW 1,0 60
19.05.2018 14:00:00 -0,6 -8,8 9 5 SSW 1,0 60
19.05.2018 13:00:00 -0,8 -8,0 4 2 - 2,5 60
19.05.2018 12:00:00 -1,8 -7,7 4 2 N 0,5 60
19.05.2018 11:00:00 -2,4 -9,5 0 0 N 30 60
19.05.2018 10:00:00 -5,0 -8,7 4 2 - 50 60
19.05.2018 09:00:00 -5,2 -10,4 15 8 NE 80 42
19.05.2018 08:00:00 -6,6 -10,8 13 7 ENE 80 6
19.05.2018 07:00:00 -5,0 -11,0 8 4 ESE 80 -
19.05.2018 06:00:00 -5,0 -8,9 8 4 SW 20 -
19.05.2018 05:00:00 -5,0 -8,1 11 6 SSW 0,1 -
19.05.2018 04:00:00 -4,8 -8,4 18 10 S 0,3 -
19.05.2018 03:00:00 -5,0 -7,3 15 8 S 0,1 -
19.05.2018 02:00:00 -4,8 -8,1 9 5 SSW 0,1 -
19.05.2018 01:00:00 -4,8 -7,4 9 5 E 0,1 -
19.05.2018 00:00:00 -5,0 -6,7 5 3 WSW 0,1 -
18.05.2018 23:00:00 -5,4 -7,1 18 10 ENE 0,2 -
18.05.2018 22:00:00 -5,6 -7,3 18 10 ENE 0,3 -
18.05.2018 21:00:00 -5,0 -7,7 9 5 ENE 5 -
18.05.2018 20:00:00 -4,4 -8,7 11 6 NNE 5 0
18.05.2018 19:00:00 -4,8 -9,6 15 8 NE 50 0
18.05.2018 18:00:00 -4,8 -11,4 18 10 NNE 50 6
18.05.2018 17:00:00 -4,2 -11,7 9 5 NE 50 54
18.05.2018 16:00:00 -3,8 -11,1 8 4 NE 80 60
18.05.2018 15:00:00 -4,0 -10,0 8 4 ENE 80 60
18.05.2018 14:00:00 -4,8 -10,0 8 4 NE 80 60
18.05.2018 13:00:00 -5,4 -10,0 15 8 NE 10 60
18.05.2018 12:00:00 -6,8 -11,7 28 15 ENE 10 60
18.05.2018 11:00:00 -7,0 -10,8 24 13 NE 15 60
18.05.2018 10:00:00 -7,2 -11,5 28 15 ENE 20 60
18.05.2018 09:00:00 -7,2 -11,5 28 15 ENE 30 60
18.05.2018 08:00:00 -7,2 -10,9 18 10 NE 50 12
18.05.2018 07:00:00 -7,6 -10,9 28 15 ENE 30 -
18.05.2018 06:00:00 -7,0 -10,8 13 7 NE 15 -
18.05.2018 05:00:00 -6,0 -9,0 8 4 E 10 -
18.05.2018 04:00:00 -6,2 -10,1 9 5 ENE 10 -
18.05.2018 03:00:00 -5,8 -8,7 9 5 E 10 -
18.05.2018 02:00:00 -6,0 -8,9 8 4 E 10 -
18.05.2018 01:00:00 -6,2 -9,6 11 6 E 10 -
18.05.2018 00:00:00 -6,0 -8,7 13 7 E 0,8 -
17.05.2018 23:00:00 -6,2 -8,2 11 6 ENE 0,1 -
17.05.2018 22:00:00 -6,2 -8,0 18 10 ENE 0,1 -
17.05.2018 21:00:00 -6,2 -8,2 34 18 NE 0,1 0
17.05.2018 20:00:00 -6,2 -8,2 24 13 NE 0,2 0

tt = Température de l'air
td = dewpoint
ff = Vitesse du vent
dd = Direction du vent
vv = visibility
sd = Ensoleillement

stations d'obs. à proximité